createdAt,value
2016-12-08T00:00:19.986Z,0
2016-12-08T00:01:20.037Z,0
2016-12-08T00:02:20.084Z,0
2016-12-08T00:03:20.161Z,0
2016-12-08T00:04:20.219Z,0
2016-12-08T00:05:20.260Z,0
2016-12-08T00:06:20.331Z,0
2016-12-08T00:07:20.385Z,0
2016-12-08T00:08:20.450Z,0
2016-12-08T00:09:20.510Z,0
2016-12-08T00:10:20.568Z,0
2016-12-08T00:11:20.602Z,0
2016-12-08T00:12:20.662Z,0
2016-12-08T00:13:20.717Z,0
2016-12-08T00:14:20.779Z,0
2016-12-08T00:15:20.824Z,0
2016-12-08T00:16:20.904Z,0
2016-12-08T00:17:20.926Z,0
2016-12-08T00:18:20.996Z,0
2016-12-08T00:19:21.052Z,0
2016-12-08T00:20:21.103Z,0
2016-12-08T00:21:21.186Z,0
2016-12-08T00:22:21.244Z,0
2016-12-08T00:23:21.268Z,0
2016-12-08T00:24:21.336Z,0
2016-12-08T00:25:21.404Z,0
2016-12-08T00:26:21.455Z,0
2016-12-08T00:27:21.505Z,0
2016-12-08T00:28:21.576Z,0
2016-12-08T00:29:21.622Z,0
2016-12-08T00:30:21.675Z,0
2016-12-08T00:31:21.737Z,0
2016-12-08T00:32:21.772Z,0
2016-12-08T00:33:21.854Z,0
2016-12-08T00:34:21.902Z,0
2016-12-08T00:35:21.947Z,0
2016-12-08T00:36:22.031Z,0
2016-12-08T00:37:22.075Z,0
2016-12-08T00:38:22.117Z,0
2016-12-08T00:39:22.181Z,0
2016-12-08T00:40:22.246Z,0
2016-12-08T00:41:22.293Z,0
2016-12-08T00:42:22.331Z,0
2016-12-08T00:43:22.412Z,0
2016-12-08T00:44:22.454Z,0
2016-12-08T00:45:22.542Z,0
2016-12-08T00:46:22.580Z,0
2016-12-08T00:47:22.614Z,0
2016-12-08T00:48:22.682Z,0
2016-12-08T00:49:22.744Z,0
2016-12-08T00:50:23.092Z,0
2016-12-08T00:51:22.875Z,0
2016-12-08T00:52:22.917Z,0
2016-12-08T00:53:23.008Z,0
2016-12-08T00:54:23.025Z,0
2016-12-08T00:55:23.065Z,0
2016-12-08T00:56:23.144Z,0
2016-12-08T00:57:23.206Z,0
2016-12-08T00:58:23.250Z,0
2016-12-08T00:59:23.314Z,0
2016-12-08T01:00:23.383Z,0
2016-12-08T01:01:23.443Z,0
2016-12-08T01:02:23.482Z,0
2016-12-08T01:03:23.553Z,0
2016-12-08T01:04:23.609Z,0
2016-12-08T01:05:23.669Z,0
2016-12-08T01:06:23.726Z,0
2016-12-08T01:07:23.767Z,0
2016-12-08T01:08:23.819Z,0
2016-12-08T01:09:23.871Z,0
2016-12-08T01:10:23.940Z,0
2016-12-08T01:11:23.990Z,0
2016-12-08T01:12:24.045Z,0
2016-12-08T01:13:24.121Z,0
2016-12-08T01:14:24.171Z,0
2016-12-08T01:15:24.217Z,0
2016-12-08T01:16:24.303Z,0
2016-12-08T01:17:24.331Z,0
2016-12-08T01:18:24.368Z,0
2016-12-08T01:19:24.424Z,0
2016-12-08T01:20:24.504Z,0
2016-12-08T01:21:24.761Z,0
2016-12-08T01:22:24.597Z,0
2016-12-08T01:23:24.660Z,0
2016-12-08T01:24:24.723Z,0
2016-12-08T01:25:24.800Z,0
2016-12-08T01:26:24.827Z,0
2016-12-08T01:27:24.908Z,0
2016-12-08T01:28:24.956Z,0
2016-12-08T01:29:25.003Z,0
2016-12-08T01:30:25.071Z,0
2016-12-08T01:31:25.119Z,0
2016-12-08T01:32:25.192Z,0
2016-12-08T01:33:25.237Z,0
2016-12-08T01:34:25.308Z,0
2016-12-08T01:35:25.360Z,0
2016-12-08T01:36:25.406Z,0
2016-12-08T01:37:25.458Z,0
2016-12-08T01:38:25.504Z,0
2016-12-08T01:39:25.578Z,0
2016-12-08T01:40:25.616Z,0
2016-12-08T01:41:25.682Z,0
2016-12-08T01:42:25.741Z,0
2016-12-08T01:43:25.805Z,0
2016-12-08T01:44:25.838Z,0
2016-12-08T01:45:25.896Z,0
2016-12-08T01:46:25.966Z,0
2016-12-08T01:47:26.033Z,0
2016-12-08T01:48:26.076Z,0
2016-12-08T01:49:26.146Z,0
2016-12-08T01:50:26.170Z,0
2016-12-08T01:51:26.229Z,0
2016-12-08T01:52:26.311Z,0
2016-12-08T01:53:26.341Z,0
2016-12-08T01:54:26.428Z,0
2016-12-08T01:55:26.487Z,0
2016-12-08T01:56:26.534Z,0
2016-12-08T01:57:26.583Z,0
2016-12-08T01:58:26.647Z,0
2016-12-08T01:59:26.693Z,0
2016-12-08T02:00:26.754Z,0
2016-12-08T02:01:26.791Z,0
2016-12-08T02:02:26.874Z,0
2016-12-08T02:03:26.919Z,0
2016-12-08T02:04:26.968Z,0
2016-12-08T02:05:27.025Z,0
2016-12-08T02:06:27.066Z,0
2016-12-08T02:07:27.126Z,0
2016-12-08T02:08:27.216Z,0
2016-12-08T02:09:27.234Z,0
2016-12-08T02:10:27.322Z,0
2016-12-08T02:11:27.373Z,0
2016-12-08T02:12:27.413Z,0
2016-12-08T02:13:27.469Z,0
2016-12-08T02:14:27.551Z,0
2016-12-08T02:15:27.593Z,0
2016-12-08T02:16:27.662Z,0
2016-12-08T02:17:27.715Z,0
2016-12-08T02:18:27.756Z,0
2016-12-08T02:19:27.824Z,0
2016-12-08T02:20:27.915Z,0
2016-12-08T02:21:27.928Z,0
2016-12-08T02:22:27.988Z,0
2016-12-08T02:23:28.042Z,0
2016-12-08T02:24:28.133Z,0
2016-12-08T02:25:28.158Z,0
2016-12-08T02:26:28.212Z,0
2016-12-08T02:27:28.276Z,0
2016-12-08T02:28:28.312Z,0
2016-12-08T02:29:28.386Z,0
2016-12-08T02:30:28.417Z,0
2016-12-08T02:31:28.468Z,0
2016-12-08T02:32:28.543Z,0
2016-12-08T02:33:28.590Z,0
2016-12-08T02:34:28.637Z,0
2016-12-08T02:35:28.709Z,0
2016-12-08T02:36:28.765Z,0
2016-12-08T02:37:28.846Z,0
2016-12-08T02:38:28.875Z,0
2016-12-08T02:39:28.950Z,0
2016-12-08T02:40:28.986Z,0
2016-12-08T02:41:29.037Z,0
2016-12-08T02:42:29.434Z,0
2016-12-08T02:43:29.163Z,0
2016-12-08T02:44:29.229Z,0
2016-12-08T02:45:29.294Z,0
2016-12-08T02:46:29.323Z,0
2016-12-08T02:47:29.385Z,0
2016-12-08T02:48:29.431Z,0
2016-12-08T02:49:29.485Z,0
2016-12-08T02:50:29.535Z,0
2016-12-08T02:51:29.611Z,0
2016-12-08T02:52:29.682Z,0
2016-12-08T02:53:29.704Z,0
2016-12-08T02:54:29.776Z,0
2016-12-08T02:55:29.848Z,0
2016-12-08T02:56:29.892Z,0
2016-12-08T02:57:29.937Z,0
2016-12-08T02:58:30.006Z,0
2016-12-08T02:59:30.077Z,0
2016-12-08T03:00:30.106Z,0
2016-12-08T03:01:30.184Z,0
2016-12-08T03:02:30.222Z,0
2016-12-08T03:03:30.286Z,0
2016-12-08T03:04:30.331Z,0
2016-12-08T03:05:30.411Z,0
2016-12-08T03:06:30.449Z,0
2016-12-08T03:07:30.510Z,0
2016-12-08T03:08:30.565Z,0
2016-12-08T03:09:30.609Z,0
2016-12-08T03:10:30.677Z,0
2016-12-08T03:11:30.733Z,0
2016-12-08T03:12:30.790Z,0
2016-12-08T03:13:30.831Z,0
2016-12-08T03:14:30.913Z,0
2016-12-08T03:15:30.952Z,0
2016-12-08T03:16:31.002Z,0
2016-12-08T03:17:31.082Z,0
2016-12-08T03:18:31.126Z,0
2016-12-08T03:19:31.189Z,0
2016-12-08T03:20:31.241Z,0
2016-12-08T03:21:31.287Z,0
2016-12-08T03:22:31.343Z,0
2016-12-08T03:23:31.402Z,0
2016-12-08T03:24:31.469Z,0
2016-12-08T03:25:31.525Z,0
2016-12-08T03:26:31.560Z,0
2016-12-08T03:27:31.626Z,0
2016-12-08T03:28:31.699Z,0
2016-12-08T03:29:31.735Z,0
2016-12-08T03:30:31.805Z,0
2016-12-08T03:31:31.846Z,0
2016-12-08T03:32:31.907Z,0
2016-12-08T03:33:31.970Z,0
2016-12-08T03:34:32.020Z,0
2016-12-08T03:35:32.079Z,0
2016-12-08T03:36:32.154Z,0
2016-12-08T03:37:32.202Z,0
2016-12-08T03:38:32.232Z,0
2016-12-08T03:39:32.297Z,0
2016-12-08T03:40:32.351Z,0
2016-12-08T03:41:32.415Z,0
2016-12-08T03:42:32.488Z,0
2016-12-08T03:43:32.540Z,0
2016-12-08T03:44:32.598Z,0
2016-12-08T03:45:32.651Z,0
2016-12-08T03:46:32.711Z,0
2016-12-08T03:47:32.766Z,0
2016-12-08T03:48:32.820Z,0
2016-12-08T03:49:32.876Z,0
2016-12-08T03:50:32.931Z,0
2016-12-08T03:51:32.990Z,0
2016-12-08T03:52:33.044Z,0
2016-12-08T03:53:33.107Z,0
2016-12-08T03:54:33.155Z,0
2016-12-08T03:55:33.212Z,0
2016-12-08T03:56:33.317Z,0
2016-12-08T03:57:33.375Z,0
2016-12-08T03:58:33.426Z,0
2016-12-08T03:59:33.480Z,0
2016-12-08T04:00:33.567Z,0
2016-12-08T04:01:33.595Z,0
2016-12-08T04:02:33.652Z,0
2016-12-08T04:03:33.736Z,0
2016-12-08T04:04:33.760Z,0
2016-12-08T04:05:33.817Z,0
2016-12-08T04:06:33.872Z,0
2016-12-08T04:07:33.931Z,0
2016-12-08T04:08:33.985Z,0
2016-12-08T04:09:34.043Z,0
2016-12-08T04:10:34.099Z,0
2016-12-08T04:11:34.154Z,0
2016-12-08T04:12:34.211Z,0
2016-12-08T04:13:34.297Z,0
2016-12-08T04:14:34.323Z,0
2016-12-08T04:15:34.378Z,0
2016-12-08T04:16:34.640Z,0
2016-12-08T04:17:34.693Z,0
2016-12-08T04:18:34.549Z,0
2016-12-08T04:19:34.606Z,0
2016-12-08T04:20:34.659Z,0
2016-12-08T04:21:34.716Z,0
2016-12-08T04:22:34.774Z,0
2016-12-08T04:23:34.829Z,0
2016-12-08T04:24:34.886Z,0
2016-12-08T04:25:34.942Z,0
2016-12-08T04:26:35.000Z,0
2016-12-08T04:27:35.054Z,0
2016-12-08T04:28:35.113Z,0
2016-12-08T04:29:35.170Z,0
2016-12-08T04:30:35.229Z,0
2016-12-08T04:31:35.281Z,0
2016-12-08T04:32:35.341Z,0
2016-12-08T04:33:35.395Z,0
2016-12-08T04:34:35.453Z,0
2016-12-08T04:35:35.509Z,0
2016-12-08T04:36:35.568Z,0
2016-12-08T04:37:35.621Z,0
2016-12-08T04:38:35.704Z,0
2016-12-08T04:39:35.733Z,0
2016-12-08T04:40:35.789Z,0
2016-12-08T04:41:35.876Z,0
2016-12-08T04:42:35.902Z,0
2016-12-08T04:43:35.956Z,0
2016-12-08T04:44:36.017Z,0
2016-12-08T04:45:36.071Z,0
2016-12-08T04:46:36.328Z,0
2016-12-08T04:47:36.387Z,0
2016-12-08T04:48:36.238Z,0
2016-12-08T04:49:36.686Z,0
2016-12-08T04:50:36.355Z,0
2016-12-08T04:51:36.410Z,0
2016-12-08T04:52:36.462Z,0
2016-12-08T04:53:36.519Z,0
2016-12-08T04:54:36.576Z,0
2016-12-08T04:55:36.632Z,0
2016-12-08T04:56:36.689Z,0
2016-12-08T04:57:36.743Z,0
2016-12-08T04:58:36.800Z,0
2016-12-08T04:59:37.181Z,0
2016-12-08T05:00:36.910Z,0
2016-12-08T05:01:36.966Z,0
2016-12-08T05:02:37.023Z,0
2016-12-08T05:03:37.077Z,0
2016-12-08T05:04:37.135Z,0
2016-12-08T05:05:37.192Z,0
2016-12-08T05:06:37.251Z,0
2016-12-08T05:07:37.312Z,0
2016-12-08T05:08:37.359Z,0
2016-12-08T05:09:37.418Z,0
2016-12-08T05:10:37.474Z,0
2016-12-08T05:11:37.528Z,0
2016-12-08T05:12:37.584Z,0
2016-12-08T05:13:37.644Z,0
2016-12-08T05:14:37.699Z,0
2016-12-08T05:15:37.753Z,0
2016-12-08T05:16:37.811Z,0
2016-12-08T05:17:37.867Z,0
2016-12-08T05:18:37.920Z,0
2016-12-08T05:19:38.180Z,0
2016-12-08T05:20:38.032Z,0
2016-12-08T05:21:38.089Z,0
2016-12-08T05:22:38.116Z,0
2016-12-08T05:23:38.142Z,0
2016-12-08T05:24:38.198Z,0
2016-12-08T05:25:38.249Z,0
2016-12-08T05:26:38.327Z,0
2016-12-08T05:27:38.345Z,0
2016-12-08T05:28:38.449Z,0
2016-12-08T05:29:38.465Z,0
2016-12-08T05:30:38.537Z,0
2016-12-08T05:31:38.590Z,0
2016-12-08T05:32:38.661Z,0
2016-12-08T05:33:38.705Z,0
2016-12-08T05:34:38.736Z,0
2016-12-08T05:35:38.802Z,0
2016-12-08T05:36:38.890Z,0
2016-12-08T05:37:38.913Z,0
2016-12-08T05:38:38.998Z,0
2016-12-08T05:39:39.057Z,0
2016-12-08T05:40:39.074Z,0
2016-12-08T05:41:39.160Z,0
2016-12-08T05:42:39.193Z,0
2016-12-08T05:43:39.242Z,0
2016-12-08T05:44:39.361Z,0
2016-12-08T05:45:39.391Z,0
2016-12-08T05:46:39.627Z,0
2016-12-08T05:47:39.677Z,0
2016-12-08T05:48:54.480Z,0
2016-12-08T05:49:39.600Z,0
2016-12-08T05:50:39.644Z,0
2016-12-08T05:51:39.695Z,0
2016-12-08T05:52:39.764Z,0
2016-12-08T05:53:39.848Z,0
2016-12-08T05:54:39.873Z,0
2016-12-08T05:55:39.937Z,0
2016-12-08T05:56:39.995Z,0
2016-12-08T05:57:40.040Z,0
2016-12-08T05:58:40.104Z,0
2016-12-08T05:59:40.166Z,0
2016-12-08T06:00:40.212Z,0
2016-12-08T06:01:40.273Z,0
2016-12-08T06:02:40.330Z,0
2016-12-08T06:03:40.387Z,0
2016-12-08T06:04:40.461Z,0
2016-12-08T06:05:40.488Z,0
2016-12-08T06:06:40.543Z,0
2016-12-08T06:07:40.627Z,0
2016-12-08T06:08:40.690Z,0
2016-12-08T06:09:40.723Z,0
2016-12-08T06:10:40.814Z,0
2016-12-08T06:11:40.842Z,0
2016-12-08T06:12:40.899Z,0
2016-12-08T06:13:40.948Z,0
2016-12-08T06:14:40.998Z,0
2016-12-08T06:15:41.076Z,0
2016-12-08T06:16:41.335Z,0
2016-12-08T06:17:41.194Z,0
2016-12-08T06:18:41.448Z,0
2016-12-08T06:19:41.273Z,0
2016-12-08T06:20:41.556Z,0
2016-12-08T06:21:41.393Z,0
2016-12-08T06:22:41.459Z,0
2016-12-08T06:23:41.522Z,0
2016-12-08T06:24:41.579Z,4
2016-12-08T06:25:41.931Z,4
2016-12-08T06:26:41.688Z,0
2016-12-08T06:27:41.733Z,0
2016-12-08T06:28:41.833Z,4
2016-12-08T06:29:41.833Z,4
2016-12-08T06:30:41.920Z,4
2016-12-08T06:31:41.968Z,4
2016-12-08T06:32:42.027Z,8
2016-12-08T06:33:42.084Z,4
2016-12-08T06:34:42.134Z,8
2016-12-08T06:35:42.169Z,4
2016-12-08T06:36:42.247Z,8
2016-12-08T06:37:42.297Z,8
2016-12-08T06:38:42.371Z,12
2016-12-08T06:39:42.430Z,12
2016-12-08T06:40:42.466Z,16
2016-12-08T06:41:42.508Z,12
2016-12-08T06:42:42.577Z,16
2016-12-08T06:43:42.639Z,16
2016-12-08T06:44:42.682Z,20
2016-12-08T06:45:42.764Z,20
2016-12-08T06:46:43.005Z,24
2016-12-08T06:47:42.869Z,20
2016-12-08T06:48:42.934Z,24
2016-12-08T06:49:42.973Z,28
2016-12-08T06:50:43.049Z,28
2016-12-08T06:51:43.080Z,28
2016-12-08T06:52:43.149Z,32
2016-12-08T06:53:43.186Z,44
2016-12-08T06:54:43.270Z,56
2016-12-08T06:55:43.308Z,68
2016-12-08T06:56:43.376Z,76
2016-12-08T06:57:43.407Z,76
2016-12-08T06:58:43.473Z,80
2016-12-08T06:59:43.532Z,80
2016-12-08T07:00:43.601Z,76
2016-12-08T07:01:43.653Z,84
2016-12-08T07:02:44.018Z,84
2016-12-08T07:03:43.788Z,88
2016-12-08T07:04:43.810Z,92
2016-12-08T07:05:43.889Z,92
2016-12-08T07:06:43.916Z,96
2016-12-08T07:07:43.993Z,100
2016-12-08T07:08:44.046Z,104
2016-12-08T07:09:44.095Z,116
2016-12-08T07:10:44.175Z,124
2016-12-08T07:11:44.218Z,140
2016-12-08T07:12:44.265Z,156
2016-12-08T07:13:44.349Z,176
2016-12-08T07:14:44.379Z,184
2016-12-08T07:15:44.638Z,192
2016-12-08T07:16:44.487Z,200
2016-12-08T07:17:44.571Z,212
2016-12-08T07:18:44.624Z,224
2016-12-08T07:19:44.650Z,232
2016-12-08T07:20:44.702Z,248
2016-12-08T07:21:44.789Z,264
2016-12-08T07:22:44.831Z,284
2016-12-08T07:23:44.888Z,292
2016-12-08T07:24:44.946Z,300
2016-12-08T07:25:44.991Z,300
2016-12-08T07:26:45.064Z,300
2016-12-08T07:27:45.121Z,316
2016-12-08T07:28:45.189Z,348
2016-12-08T07:29:45.247Z,376
2016-12-08T07:30:45.302Z,404
2016-12-08T07:31:45.339Z,440
2016-12-08T07:32:45.401Z,468
2016-12-08T07:33:45.456Z,472
2016-12-08T07:34:45.508Z,444
2016-12-08T07:35:45.568Z,436
2016-12-08T07:36:45.613Z,464
2016-12-08T07:37:45.667Z,480
2016-12-08T07:38:45.721Z,492
2016-12-08T07:39:45.788Z,508
2016-12-08T07:40:45.853Z,496
2016-12-08T07:41:45.922Z,480
2016-12-08T07:42:45.964Z,476
2016-12-08T07:43:46.023Z,456
2016-12-08T07:44:46.071Z,440
2016-12-08T07:45:46.140Z,448
2016-12-08T07:46:46.193Z,472
2016-12-08T07:47:46.241Z,492
2016-12-08T07:48:46.296Z,496
2016-12-08T07:49:46.354Z,512
2016-12-08T07:50:46.426Z,560
2016-12-08T07:51:46.477Z,588
2016-12-08T07:52:46.540Z,576
2016-12-08T07:53:46.562Z,572
2016-12-08T07:54:46.637Z,584
2016-12-08T07:55:46.701Z,584
2016-12-08T07:56:46.745Z,568
2016-12-08T07:57:46.800Z,568
2016-12-08T07:58:46.872Z,580
2016-12-08T07:59:46.935Z,604
2016-12-08T08:00:46.975Z,616
2016-12-08T08:01:47.019Z,620
2016-12-08T08:02:47.089Z,620
2016-12-08T08:03:47.143Z,640
2016-12-08T08:04:47.187Z,660
2016-12-08T08:05:47.240Z,684
2016-12-08T08:06:47.308Z,696
2016-12-08T08:07:47.352Z,672
2016-12-08T08:08:47.432Z,668
2016-12-08T08:09:47.484Z,696
2016-12-08T08:10:47.543Z,688
2016-12-08T08:11:47.610Z,672
2016-12-08T08:12:47.641Z,676
2016-12-08T08:13:47.709Z,716
2016-12-08T08:14:47.768Z,740
2016-12-08T08:15:47.849Z,740
2016-12-08T08:16:47.883Z,748
2016-12-08T08:17:47.934Z,768
2016-12-08T08:18:47.985Z,780
2016-12-08T08:19:48.051Z,792
2016-12-08T08:20:48.101Z,800
2016-12-08T08:21:48.154Z,808
2016-12-08T08:22:48.200Z,816
2016-12-08T08:23:48.276Z,832
2016-12-08T08:24:48.339Z,840
2016-12-08T08:25:48.393Z,848
2016-12-08T08:26:48.456Z,848
2016-12-08T08:27:48.480Z,828
2016-12-08T08:28:48.556Z,804
2016-12-08T08:29:48.609Z,812
2016-12-08T08:30:48.676Z,832
2016-12-08T08:31:48.739Z,864
2016-12-08T08:32:48.795Z,864
2016-12-08T08:33:48.832Z,844
2016-12-08T08:34:48.889Z,836
2016-12-08T08:35:48.944Z,868
2016-12-08T08:36:48.987Z,876
2016-12-08T08:37:49.059Z,868
2016-12-08T08:38:49.123Z,872
2016-12-08T08:39:49.188Z,888
2016-12-08T08:40:49.228Z,896
2016-12-08T08:41:49.290Z,884
2016-12-08T08:42:49.336Z,872
2016-12-08T08:43:49.423Z,860
2016-12-08T08:44:49.459Z,848
2016-12-08T08:45:49.531Z,828
2016-12-08T08:46:49.592Z,812
2016-12-08T08:47:49.632Z,812
2016-12-08T08:48:49.701Z,820
2016-12-08T08:49:49.730Z,824
2016-12-08T08:50:49.785Z,840
2016-12-08T08:51:49.859Z,848
2016-12-08T08:52:49.933Z,868
2016-12-08T08:53:49.988Z,896
2016-12-08T08:54:50.034Z,908
2016-12-08T08:55:50.102Z,908
2016-12-08T08:56:50.157Z,920
2016-12-08T08:57:50.200Z,936
2016-12-08T08:58:50.257Z,944
2016-12-08T08:59:50.310Z,936
2016-12-08T09:00:50.389Z,920
2016-12-08T09:01:50.416Z,924
2016-12-08T09:02:50.483Z,924
2016-12-08T09:03:50.531Z,916
2016-12-08T09:04:50.607Z,920
2016-12-08T09:05:50.634Z,928
2016-12-08T09:06:50.703Z,1012
2016-12-08T09:07:50.782Z,948
2016-12-08T09:08:50.821Z,952
2016-12-08T09:09:50.870Z,952
2016-12-08T09:10:50.928Z,956
2016-12-08T09:11:51.002Z,956
2016-12-08T09:12:51.047Z,940
2016-12-08T09:13:51.108Z,984
2016-12-08T09:14:51.162Z,980
2016-12-08T09:15:51.226Z,968
2016-12-08T09:16:51.281Z,852
2016-12-08T09:17:51.346Z,744
2016-12-08T09:18:51.381Z,776
2016-12-08T09:19:51.450Z,880
2016-12-08T09:20:51.520Z,916
2016-12-08T09:21:51.571Z,936
2016-12-08T09:22:51.943Z,948
2016-12-08T09:23:51.689Z,952
2016-12-08T09:24:51.755Z,944
2016-12-08T09:25:51.792Z,956
2016-12-08T09:26:51.851Z,988
2016-12-08T09:27:51.913Z,1004
2016-12-08T09:28:52.004Z,996
2016-12-08T09:29:52.045Z,1036
2016-12-08T09:30:52.101Z,1052
2016-12-08T09:31:52.142Z,1044
2016-12-08T09:32:52.181Z,1012
2016-12-08T09:33:52.258Z,920
2016-12-08T09:34:52.304Z,924
2016-12-08T09:35:52.359Z,1080
2016-12-08T09:36:52.409Z,1172
2016-12-08T09:37:52.500Z,1168
2016-12-08T09:38:52.549Z,1104
2016-12-08T09:39:52.617Z,1084
2016-12-08T09:40:52.653Z,1004
2016-12-08T09:41:52.707Z,1072
2016-12-08T09:42:52.755Z,1184
2016-12-08T09:43:52.818Z,1296
2016-12-08T09:44:52.907Z,1328
2016-12-08T09:45:52.946Z,1332
2016-12-08T09:46:53.004Z,1336
2016-12-08T09:47:53.083Z,1348
2016-12-08T09:48:53.100Z,1376
2016-12-08T09:49:53.163Z,1320
2016-12-08T09:50:53.232Z,1364
2016-12-08T09:51:53.284Z,1432
2016-12-08T09:52:53.352Z,1436
2016-12-08T09:53:53.416Z,1444
2016-12-08T09:54:53.508Z,1468
2016-12-08T09:55:53.514Z,1488
2016-12-08T09:56:53.571Z,1512
2016-12-08T09:57:53.625Z,1540
2016-12-08T09:58:53.690Z,1568
2016-12-08T09:59:53.739Z,1588
2016-12-08T10:00:53.831Z,1596
2016-12-08T10:01:53.857Z,1596
2016-12-08T10:02:53.913Z,1624
2016-12-08T10:03:53.977Z,1628
2016-12-08T10:04:54.036Z,1624
2016-12-08T10:05:54.101Z,1632
2016-12-08T10:06:54.143Z,1640
2016-12-08T10:07:54.201Z,1616
2016-12-08T10:08:54.272Z,1528
2016-12-08T10:09:54.311Z,1444
2016-12-08T10:10:54.381Z,1312
2016-12-08T10:11:54.451Z,1232
2016-12-08T10:12:54.488Z,1216
2016-12-08T10:13:54.557Z,1188
2016-12-08T10:14:54.613Z,1204
2016-12-08T10:15:54.684Z,1252
2016-12-08T10:16:54.738Z,1284
2016-12-08T10:17:54.799Z,1356
2016-12-08T10:18:54.825Z,1384
2016-12-08T10:19:54.913Z,1408
2016-12-08T10:20:54.943Z,1340
2016-12-08T10:21:55.316Z,1264
2016-12-08T10:22:55.087Z,1184
2016-12-08T10:23:55.128Z,1176
2016-12-08T10:24:55.168Z,1184
2016-12-08T10:25:55.251Z,1224
2016-12-08T10:26:55.289Z,1168
2016-12-08T10:27:55.344Z,1152
2016-12-08T10:28:55.434Z,1196
2016-12-08T10:29:55.476Z,1136
2016-12-08T10:30:55.518Z,1060
2016-12-08T10:31:55.595Z,1060
2016-12-08T10:32:55.647Z,1104
2016-12-08T10:33:55.698Z,1140
2016-12-08T10:34:55.754Z,1180
2016-12-08T10:35:55.840Z,1224
2016-12-08T10:36:55.876Z,1272
2016-12-08T10:37:55.929Z,1232
2016-12-08T10:38:55.994Z,1260
2016-12-08T10:39:56.044Z,1292
2016-12-08T10:40:56.084Z,1188
2016-12-08T10:41:56.177Z,1292
2016-12-08T10:42:56.221Z,1356
2016-12-08T10:43:56.268Z,1392
2016-12-08T10:44:56.335Z,1408
2016-12-08T10:45:56.409Z,1428
2016-12-08T10:46:56.451Z,1440
2016-12-08T10:47:56.553Z,1452
2016-12-08T10:48:56.569Z,1464
2016-12-08T10:49:56.624Z,1452
2016-12-08T10:50:56.690Z,1464
2016-12-08T10:51:56.722Z,1456
2016-12-08T10:52:56.795Z,1456
2016-12-08T10:53:56.842Z,1452
2016-12-08T10:54:56.908Z,1448
2016-12-08T10:55:56.968Z,1452
2016-12-08T10:56:57.012Z,1448
2016-12-08T10:57:57.075Z,1456
2016-12-08T10:58:57.141Z,1456
2016-12-08T10:59:57.196Z,1452
2016-12-08T11:00:57.258Z,1456
2016-12-08T11:01:57.316Z,1456
2016-12-08T11:02:57.374Z,1452
2016-12-08T11:03:57.444Z,1448
2016-12-08T11:04:57.512Z,1448
2016-12-08T11:05:57.569Z,1444
2016-12-08T11:06:57.620Z,1448
2016-12-08T11:07:57.964Z,1452
2016-12-08T11:08:58.044Z,1456
2016-12-08T11:09:57.763Z,1460
2016-12-08T11:10:57.853Z,1468
2016-12-08T11:11:57.882Z,1472
2016-12-08T11:12:57.968Z,1472
2016-12-08T11:13:58.016Z,1480
2016-12-08T11:14:58.052Z,1484
2016-12-08T11:15:58.139Z,1488
2016-12-08T11:16:58.196Z,1488
2016-12-08T11:17:58.259Z,1488
2016-12-08T11:18:58.417Z,1488
2016-12-08T11:19:58.372Z,1488
2016-12-08T11:20:58.420Z,1488
2016-12-08T11:21:58.458Z,1488
2016-12-08T11:22:58.542Z,1496
2016-12-08T11:23:58.703Z,1500
2016-12-08T11:24:58.647Z,1500
2016-12-08T11:25:58.710Z,1500
2016-12-08T11:26:58.748Z,1500
2016-12-08T11:27:58.819Z,1504
2016-12-08T11:28:58.885Z,1508
2016-12-08T11:29:59.226Z,1512
2016-12-08T11:30:58.998Z,1516
2016-12-08T11:31:59.056Z,1516
2016-12-08T11:32:59.112Z,1520
2016-12-08T11:33:59.175Z,1520
2016-12-08T11:34:59.233Z,1524
2016-12-08T11:35:59.280Z,1524
2016-12-08T11:36:59.359Z,1528
2016-12-08T11:37:59.414Z,1528
2016-12-08T11:38:59.444Z,1532
2016-12-08T11:39:59.514Z,1536
2016-12-08T11:40:59.564Z,1536
2016-12-08T11:41:59.652Z,1540
2016-12-08T11:42:59.692Z,1556
2016-12-08T11:43:59.742Z,1548
2016-12-08T11:44:59.811Z,1552
2016-12-08T11:45:59.879Z,1556
2016-12-08T11:46:59.905Z,1556
2016-12-08T11:48:00.010Z,1560
2016-12-08T11:49:00.030Z,1564
2016-12-08T11:50:00.081Z,1572
2016-12-08T11:51:00.173Z,1572
2016-12-08T11:52:00.221Z,1580
2016-12-08T11:53:00.274Z,1584
2016-12-08T11:54:00.336Z,1588
2016-12-08T11:55:00.389Z,1592
2016-12-08T11:56:00.453Z,1596
2016-12-08T11:57:00.500Z,1600
2016-12-08T11:58:00.547Z,1600
2016-12-08T11:59:00.597Z,1608
2016-12-08T12:00:00.966Z,1612
2016-12-08T12:01:00.731Z,1612
2016-12-08T12:02:00.785Z,1616
2016-12-08T12:03:00.827Z,1620
2016-12-08T12:04:00.907Z,1624
2016-12-08T12:05:00.961Z,1628
2016-12-08T12:06:01.014Z,1632
2016-12-08T12:07:01.075Z,1632
2016-12-08T12:08:01.145Z,1636
2016-12-08T12:09:01.177Z,1636
2016-12-08T12:10:01.263Z,1640
2016-12-08T12:11:01.309Z,1644
2016-12-08T12:12:01.363Z,1644
2016-12-08T12:13:01.438Z,1648
2016-12-08T12:14:01.487Z,1652
2016-12-08T12:15:01.529Z,1652
2016-12-08T12:16:01.593Z,1652
2016-12-08T12:17:01.631Z,1652
2016-12-08T12:18:01.687Z,1660
2016-12-08T12:19:01.778Z,1660
2016-12-08T12:20:01.801Z,1668
2016-12-08T12:21:01.892Z,1668
2016-12-08T12:22:01.936Z,1672
2016-12-08T12:23:02.006Z,1676
2016-12-08T12:24:02.050Z,1680
2016-12-08T12:25:02.328Z,1684
2016-12-08T12:26:02.155Z,1688
2016-12-08T12:27:02.226Z,1692
2016-12-08T12:28:02.282Z,1696
2016-12-08T12:29:02.346Z,1700
2016-12-08T12:30:02.377Z,1704
2016-12-08T12:31:02.455Z,1708
2016-12-08T12:32:02.526Z,1708
2016-12-08T12:33:02.550Z,1712
2016-12-08T12:34:02.610Z,1712
2016-12-08T12:35:02.681Z,1716
2016-12-08T12:36:02.740Z,1716
2016-12-08T12:37:02.812Z,1716
2016-12-08T12:38:02.846Z,1712
2016-12-08T12:39:02.912Z,1708
2016-12-08T12:40:02.962Z,1704
2016-12-08T12:41:03.024Z,1692
2016-12-08T12:42:03.077Z,1684
2016-12-08T12:43:03.123Z,1676
2016-12-08T12:44:03.184Z,1672
2016-12-08T12:45:03.552Z,1660
2016-12-08T12:46:03.315Z,1652
2016-12-08T12:47:03.389Z,1640
2016-12-08T12:48:03.417Z,1632
2016-12-08T12:49:03.502Z,1620
2016-12-08T12:50:03.531Z,1612
2016-12-08T12:51:03.619Z,1600
2016-12-08T12:52:03.675Z,1588
2016-12-08T12:53:03.735Z,1580
2016-12-08T12:54:03.791Z,1572
2016-12-08T12:55:03.831Z,1560
2016-12-08T12:56:03.892Z,1548
2016-12-08T12:57:03.944Z,1536
2016-12-08T12:58:04.004Z,1524
2016-12-08T12:59:04.056Z,1512
2016-12-08T13:00:04.137Z,1504
2016-12-08T13:01:04.197Z,1496
2016-12-08T13:02:04.237Z,1488
2016-12-08T13:03:04.294Z,1480
2016-12-08T13:04:04.356Z,1468
2016-12-08T13:05:04.429Z,1464
2016-12-08T13:06:04.476Z,1452
2016-12-08T13:07:04.524Z,1440
2016-12-08T13:08:04.902Z,1432
2016-12-08T13:09:04.654Z,1424
2016-12-08T13:10:04.692Z,1416
2016-12-08T13:11:04.765Z,1404
2016-12-08T13:12:04.824Z,1400
2016-12-08T13:13:04.864Z,1392
2016-12-08T13:14:04.922Z,1384
2016-12-08T13:15:04.987Z,1376
2016-12-08T13:16:05.024Z,1368
2016-12-08T13:17:05.116Z,1360
2016-12-08T13:18:05.155Z,1352
2016-12-08T13:19:05.234Z,1344
2016-12-08T13:20:05.287Z,1336
2016-12-08T13:21:05.316Z,1328
2016-12-08T13:22:05.394Z,1320
2016-12-08T13:23:05.445Z,1308
2016-12-08T13:24:05.504Z,1300
2016-12-08T13:25:05.557Z,1292
2016-12-08T13:26:05.621Z,1280
2016-12-08T13:27:05.663Z,1276
2016-12-08T13:28:05.733Z,1268
2016-12-08T13:29:05.774Z,1260
2016-12-08T13:30:05.833Z,1252
2016-12-08T13:31:05.911Z,1244
2016-12-08T13:32:05.965Z,1232
2016-12-08T13:33:06.002Z,1224
2016-12-08T13:34:06.058Z,1220
2016-12-08T13:35:06.137Z,1216
2016-12-08T13:36:06.179Z,1208
2016-12-08T13:37:06.237Z,1204
2016-12-08T13:38:06.311Z,1196
2016-12-08T13:39:06.370Z,1196
2016-12-08T13:40:06.431Z,1192
2016-12-08T13:41:06.480Z,1184
2016-12-08T13:42:06.515Z,1180
2016-12-08T13:43:06.604Z,1176
2016-12-08T13:44:06.657Z,1172
2016-12-08T13:45:06.687Z,1168
2016-12-08T13:46:06.750Z,1164
2016-12-08T13:47:06.831Z,1160
2016-12-08T13:48:06.867Z,1156
2016-12-08T13:49:06.934Z,1152
2016-12-08T13:50:06.991Z,1132
2016-12-08T13:51:07.067Z,1040
2016-12-08T13:52:07.105Z,1032
2016-12-08T13:53:07.169Z,1028
2016-12-08T13:54:07.220Z,1020
2016-12-08T13:55:07.276Z,1004
2016-12-08T13:56:07.339Z,892
2016-12-08T13:57:07.386Z,648
2016-12-08T13:58:07.449Z,404
2016-12-08T13:59:07.517Z,284
2016-12-08T14:00:07.567Z,276
2016-12-08T14:01:07.640Z,276
2016-12-08T14:02:07.997Z,272
2016-12-08T14:03:07.767Z,276
2016-12-08T14:04:07.820Z,272
2016-12-08T14:05:07.856Z,268
2016-12-08T14:06:07.915Z,272